Time;durP1;ratioP1;P1;durP2;ratioP2;P2;SDS_P1;SDS_P2;PMS_P1;PMS_P2;Temp;Humidity;BMP_temperature;BMP_pressure;BME280_temperature;BME280_humidity;BME280_pressure;Samples;Min_cycle;Max_cycle;Signal;HPM_P1;HPM_P2
2021/12/12 00:01:22;;;;;;;46.40;42.40;;;;;;;23.38;37.09;93533.66;4978736;28;102917;-48
2021/12/12 00:03:52;;;;;;;45.73;42.00;;;;;;;23.38;37.33;93544.31;4961269;28;102903;-50
2021/12/12 00:06:22;;;;;;;42.97;39.50;;;;;;;23.37;36.95;93542.00;4978207;28;103960;-48
2021/12/12 00:08:54;;;;;;;45.80;41.90;;;;;;;23.36;37.34;93553.78;4974420;28;102943;-49
2021/12/12 00:11:22;;;;;;;46.23;42.30;;;;;;;23.33;37.39;93555.19;4979068;28;107230;-49
2021/12/12 00:13:58;;;;;;;48.00;43.90;;;;;;;23.34;37.00;93596.72;4979594;28;105424;-48
2021/12/12 00:16:23;;;;;;;44.73;41.03;;;;;;;23.34;36.93;93603.94;4979056;28;102882;-48
2021/12/12 00:18:49;;;;;;;43.87;40.27;;;;;;;23.33;37.41;93605.84;4979667;28;102546;-48
2021/12/12 00:21:17;;;;;;;43.60;40.00;;;;;;;23.33;36.91;93599.72;4973071;28;102908;-48
2021/12/12 00:23:43;;;;;;;44.57;40.80;;;;;;;23.32;37.05;93606.19;4979401;28;102810;-48
2021/12/12 00:26:09;;;;;;;41.27;37.77;;;;;;;23.31;36.94;93633.94;4978774;28;102819;-49
2021/12/12 00:28:36;;;;;;;45.67;41.90;;;;;;;23.30;36.79;93625.19;4979759;28;102786;-48
2021/12/12 00:31:09;;;;;;;44.27;40.53;;;;;;;23.30;36.78;93624.41;4974282;28;103676;-48
2021/12/12 00:33:40;;;;;;;44.30;40.70;;;;;;;23.26;37.17;93616.31;4977510;28;102885;-49
2021/12/12 00:36:07;;;;;;;46.93;42.97;;;;;;;23.29;36.92;93628.97;4978952;28;102801;-49
2021/12/12 00:38:35;;;;;;;46.70;42.80;;;;;;;23.29;36.80;93639.63;4979247;28;103422;-48
2021/12/12 00:41:07;;;;;;;44.93;41.13;;;;;;;23.28;37.24;93656.72;4978256;28;102863;-49
2021/12/12 00:43:44;;;;;;;43.40;39.80;;;;;;;23.28;37.11;93664.72;4974154;28;103222;-48
2021/12/12 00:46:11;;;;;;;43.27;39.67;;;;;;;23.23;37.18;93646.31;4979010;28;102845;-48
2021/12/12 00:48:38;;;;;;;46.87;42.83;;;;;;;23.28;36.64;93653.28;4978962;28;102692;-49
2021/12/12 00:51:06;;;;;;;39.83;36.63;;;;;;;23.24;37.02;93639.09;4979504;28;103037;-49
2021/12/12 00:53:32;;;;;;;42.47;38.90;;;;;;;23.27;36.97;93657.84;4973024;28;102902;-49
2021/12/12 00:55:58;;;;;;;45.00;41.20;;;;;;;23.27;37.16;93670.41;4978426;28;102863;-48
2021/12/12 00:58:25;;;;;;;47.00;43.07;;;;;;;23.23;37.15;93661.53;4979066;28;103096;-48
2021/12/12 01:00:55;;;;;;;48.10;44.07;;;;;;;23.26;36.68;93676.84;4977640;28;103265;-48
2021/12/12 01:03:26;;;;;;;47.07;43.10;;;;;;;23.25;36.68;93675.28;4979076;28;104003;-48
2021/12/12 01:05:53;;;;;;;45.10;41.40;;;;;;;23.24;36.66;93692.41;4973795;28;103785;-48
2021/12/12 01:08:19;;;;;;;41.30;37.90;;;;;;;23.24;36.70;93703.84;4978547;28;102760;-48
2021/12/12 01:11:02;;;;;;;43.40;39.90;;;;;;;23.23;37.14;93706.84;4977445;28;103210;-48
2021/12/12 01:13:28;;;;;;;42.93;39.43;;;;;;;23.23;36.62;93707.63;4978779;28;102704;-49
2021/12/12 01:16:04;;;;;;;42.67;39.20;;;;;;;23.23;36.98;93699.63;4973417;28;103204;-48
2021/12/12 01:18:36;;;;;;;43.33;39.73;;;;;;;23.22;37.02;93699.97;4978514;28;102686;-48
2021/12/12 01:21:11;;;;;;;44.80;41.10;;;;;;;23.18;37.11;93685.75;4978602;28;103149;-49
2021/12/12 01:23:59;;;;;;;43.53;40.03;;;;;;;23.21;36.59;93688.53;4978284;28;103550;-49
2021/12/12 01:26:28;;;;;;;39.90;36.70;;;;;;;23.14;36.88;93677.66;4974896;28;103783;-49
2021/12/12 01:28:56;;;;;;;44.80;41.00;;;;;;;23.21;36.64;93685.09;4982163;28;102603;-49
2021/12/12 01:31:28;;;;;;;40.83;37.30;;;;;;;23.20;36.86;93680.88;4981207;28;104237;-49
2021/12/12 01:34:08;;;;;;;40.03;36.73;;;;;;;23.21;36.72;93688.53;4981148;28;102993;-49
2021/12/12 01:39:17;;;;;;;44.17;40.53;;;;;;;23.15;36.64;93663.22;4981240;28;102748;-49
2021/12/12 01:42:11;;;;;;;44.20;40.57;;;;;;;23.20;36.52;93680.88;4980999;28;103426;-49
2021/12/12 01:45:03;;;;;;;39.73;36.53;;;;;;;23.20;36.78;93691.53;4981424;28;102701;-49
2021/12/12 01:47:44;;;;;;;40.83;37.43;;;;;;;23.19;36.47;93693.44;4980759;28;102825;-49
2021/12/12 01:50:17;;;;;;;43.60;39.97;;;;;;;23.19;36.83;93700.63;4982046;28;103237;-49
2021/12/12 01:52:45;;;;;;;41.07;37.77;;;;;;;23.18;36.46;93717.72;4981899;28;102804;-49
2021/12/12 01:55:21;;;;;;;42.57;39.07;;;;;;;23.18;36.85;93749.69;4980896;28;103037;-49
2021/12/12 01:57:47;;;;;;;39.63;36.33;;;;;;;23.18;36.43;93758.50;4981750;28;102784;-49
2021/12/12 02:00:22;;;;;;;41.43;38.10;;;;;;;23.17;36.83;93721.50;4976563;28;102885;-49
2021/12/12 02:02:49;;;;;;;37.67;34.60;;;;;;;23.16;36.84;93723.38;4979557;28;103147;-49
2021/12/12 02:05:18;;;;;;;36.80;33.77;;;;;;;23.17;36.71;93751.56;4981393;28;102771;-49
2021/12/12 02:07:50;;;;;;;38.03;34.93;;;;;;;23.16;36.36;93717.28;4980727;28;102962;-49
2021/12/12 02:10:21;;;;;;;38.27;35.17;;;;;;;23.15;36.88;93715.72;4975462;28;102759;-49
2021/12/12 02:12:46;;;;;;;35.90;33.00;;;;;;;23.15;36.75;93721.06;4972265;28;103670;-49
2021/12/12 02:15:14;;;;;;;37.77;34.87;;;;;;;23.11;36.26;93710.31;4990166;28;102900;-49
2021/12/12 02:17:45;;;;;;;36.70;33.60;;;;;;;23.13;36.62;93699.31;4980380;28;102741;-49
2021/12/12 02:20:20;;;;;;;33.83;31.10;;;;;;;23.13;36.74;93728.63;4981240;28;102781;-49
2021/12/12 02:36:53;;;;;;;28.90;26.70;;;;;;;23.20;35.73;93758.16;4967170;28;102685;-49
2021/12/12 02:39:19;;;;;;;27.50;25.20;;;;;;;23.16;36.39;93749.25;4985654;28;102708;-49
2021/12/12 02:41:55;;;;;;;29.33;27.03;;;;;;;23.18;36.15;93755.03;4983783;28;102840;-49
2021/12/12 02:44:28;;;;;;;28.90;26.60;;;;;;;23.20;35.80;93776.81;4975774;28;103266;-49
2021/12/12 02:46:57;;;;;;;28.13;25.83;;;;;;;23.20;35.81;93780.25;4979842;28;102674;-49
2021/12/12 02:50:13;;;;;;;27.20;25.03;;;;;;;23.20;35.76;93782.91;4980364;28;102769;-49
2021/12/12 02:52:15;;;;;;;25.50;23.50;;;;;;;23.22;35.54;93763.91;4965631;28;103120;-49
2021/12/12 02:54:40;;;;;;;26.77;24.67;;;;;;;23.21;35.45;93765.03;4974678;28;102649;-49
2021/12/12 02:57:07;;;;;;;27.43;25.23;;;;;;;23.20;35.96;93792.78;4980667;28;102737;-49
2021/12/12 02:59:33;;;;;;;26.50;24.40;;;;;;;23.20;35.63;93780.25;4979879;28;102938;-49
2021/12/12 03:02:10;;;;;;;25.77;23.67;;;;;;;23.21;35.50;93765.03;4980067;28;102783;-49
2021/12/12 03:04:36;;;;;;;24.60;22.70;;;;;;;23.15;35.75;93783.13;4981052;28;102724;-49
2021/12/12 03:07:04;;;;;;;23.90;22.00;;;;;;;23.20;35.86;93782.91;4975055;28;102861;-49
2021/12/12 03:09:36;;;;;;;24.43;22.43;;;;;;;23.19;35.91;93792.00;4980076;28;103201;-49
2021/12/12 03:12:08;;;;;;;21.97;20.23;;;;;;;23.20;35.52;93798.13;4980455;28;103293;-49
2021/12/12 03:14:35;;;;;;;23.03;21.27;;;;;;;23.19;35.71;93791.22;4980094;28;103253;-49
2021/12/12 03:17:07;;;;;;;22.00;20.20;;;;;;;23.20;35.62;93811.44;4974092;28;102874;-49
2021/12/12 03:19:34;;;;;;;23.40;21.50;;;;;;;23.20;35.75;93798.13;4979696;28;103086;-49
2021/12/12 03:21:59;;;;;;;21.20;19.50;;;;;;;23.19;35.55;93809.88;4979404;28;102792;-49
2021/12/12 03:24:26;;;;;;;22.00;20.30;;;;;;;23.16;35.39;93829.19;4977323;28;103145;-49
2021/12/12 03:26:59;;;;;;;21.03;19.33;;;;;;;23.19;35.36;93842.63;4975861;28;103232;-49
2021/12/12 03:29:26;;;;;;;20.40;18.80;;;;;;;23.15;35.36;93828.41;4979229;28;102747;-49
2021/12/12 03:32:00;;;;;;;21.13;19.53;;;;;;;23.20;35.38;93824.75;4980070;28;102891;-49
2021/12/12 03:34:30;;;;;;;19.70;18.20;;;;;;;23.20;35.42;93848.75;4968507;28;102715;-49
2021/12/12 03:36:57;;;;;;;22.03;20.23;;;;;;;23.21;35.47;93877.72;4980800;28;102731;-49
2021/12/12 03:39:34;;;;;;;20.13;18.63;;;;;;;23.21;35.37;93851.06;4974822;28;102878;-49
2021/12/12 03:42:03;;;;;;;20.00;18.40;;;;;;;23.17;35.64;93855.50;4980195;28;102836;-49
2021/12/12 03:44:32;;;;;;;19.60;18.00;;;;;;;23.20;34.76;93873.50;4979074;28;102704;-49
2021/12/12 03:47:05;;;;;;;19.10;17.60;;;;;;;23.22;35.38;93886.50;4979449;28;103291;-49
2021/12/12 03:49:32;;;;;;;19.17;17.67;;;;;;;23.22;35.37;93875.81;4974536;28;103329;-49
2021/12/12 03:51:58;;;;;;;18.20;16.80;;;;;;;23.23;35.25;93864.06;4980342;28;102771;-49
2021/12/12 03:54:24;;;;;;;18.63;17.13;;;;;;;23.24;35.21;93868.28;4979449;28;102734;-49
2021/12/12 03:56:50;;;;;;;18.70;17.10;;;;;;;23.01;34.91;93854.63;4979846;28;102888;-49
2021/12/12 03:59:15;;;;;;;18.10;16.77;;;;;;;23.25;35.06;93902.56;4979556;28;102851;-49
2021/12/12 04:01:48;;;;;;;18.60;17.20;;;;;;;23.23;35.25;93904.03;4974225;28;103194;-49
2021/12/12 04:04:36;;;;;;;18.90;17.40;;;;;;;23.26;34.71;93914.78;4979281;28;103192;-49
2021/12/12 04:07:09;;;;;;;17.00;15.70;;;;;;;23.28;35.14;93912.56;4979861;28;103709;-49
2021/12/12 04:09:35;;;;;;;18.50;17.00;;;;;;;23.27;34.69;93903.03;4978864;28;103067;-49
2021/12/12 04:12:04;;;;;;;17.90;16.30;;;;;;;23.29;34.92;93897.34;4974336;28;102910;-49
2021/12/12 04:14:30;;;;;;;19.00;17.50;;;;;;;23.29;34.77;93905.34;4979045;28;102763;-49
2021/12/12 04:16:59;;;;;;;17.80;16.40;;;;;;;23.31;34.61;93911.91;4978567;28;103529;-49
2021/12/12 04:19:25;;;;;;;16.80;15.50;;;;;;;23.32;34.67;93908.13;4978554;28;102839;-49
2021/12/12 04:21:51;;;;;;;18.40;16.90;;;;;;;23.33;34.47;93911.56;4977738;28;102707;-49
2021/12/12 04:24:30;;;;;;;17.57;16.20;;;;;;;23.33;34.90;93914.22;4976667;28;102967;-49
2021/12/12 04:26:58;;;;;;;17.13;15.77;;;;;;;23.33;34.56;93933.66;4979761;28;102734;-49
2021/12/12 04:29:28;;;;;;;17.60;16.20;;;;;;;23.34;34.91;93939.75;4978255;28;102749;-49
2021/12/12 04:32:03;;;;;;;16.77;15.47;;;;;;;23.33;34.89;93922.22;4979285;28;103213;-49
2021/12/12 04:34:32;;;;;;;16.60;15.30;;;;;;;23.34;34.38;93929.88;4973608;28;104815;-49
2021/12/12 04:37:01;;;;;;;16.80;15.50;;;;;;;23.34;34.57;93956.53;4977687;28;102938;-49
2021/12/12 04:39:31;;;;;;;16.80;15.50;;;;;;;23.34;34.51;93967.19;4979032;28;102689;-49
2021/12/12 04:42:05;;;;;;;17.07;15.77;;;;;;;23.36;34.45;93975.66;4977804;28;102772;-49
2021/12/12 04:44:36;;;;;;;16.30;15.00;;;;;;;23.35;34.94;93974.09;4973704;28;103218;-49
2021/12/12 04:50:40;;;;;;;16.37;15.07;;;;;;;23.37;34.93;93955.09;4978770;28;103352;-49
2021/12/12 04:53:18;;;;;;;16.03;14.83;;;;;;;23.38;34.66;93996.66;4950116;28;102783;-48
2021/12/12 04:55:56;;;;;;;15.67;14.47;;;;;;;23.31;34.68;93964.41;4973462;28;103206;-48
2021/12/12 04:58:43;;;;;;;15.23;14.03;;;;;;;23.36;34.70;93998.88;4979602;28;103356;-48
2021/12/12 05:01:35;;;;;;;15.30;14.00;;;;;;;23.35;34.54;94008.75;4977082;28;102720;-48
2021/12/12 05:04:18;;;;;;;15.40;14.13;;;;;;;23.29;34.88;93996.75;4979564;28;103043;-48
2021/12/12 05:06:49;;;;;;;14.17;13.07;;;;;;;23.35;34.28;94015.97;4973506;28;102981;-48
2021/12/12 05:09:23;;;;;;;15.20;14.00;;;;;;;23.34;34.24;94025.81;4962920;28;103301;-48
2021/12/12 05:12:00;;;;;;;15.20;14.00;;;;;;;23.34;34.71;94044.47;4978694;28;103225;-48
2021/12/12 05:14:32;;;;;;;13.83;12.73;;;;;;;23.33;34.33;94034.94;4978729;28;103129;-49
2021/12/12 05:17:09;;;;;;;14.70;13.50;;;;;;;23.30;34.48;94034.81;4976378;28;102762;-48
2021/12/12 05:19:38;;;;;;;13.37;12.37;;;;;;;23.34;34.68;94046.38;4977820;28;103508;-48
2021/12/12 05:22:11;;;;;;;14.53;13.43;;;;;;;23.33;34.32;94053.59;4977743;28;102887;-48
2021/12/12 05:24:38;;;;;;;13.30;12.20;;;;;;;23.31;34.50;94034.50;4978750;28;103168;-48
2021/12/12 05:27:13;;;;;;;12.23;11.20;;;;;;;23.32;34.58;94061.91;4975082;28;102803;-48
2021/12/12 05:30:01;;;;;;;13.70;12.60;;;;;;;23.31;34.70;94055.03;4972909;28;102770;-48
2021/12/12 05:32:29;;;;;;;12.83;11.90;;;;;;;23.07;34.48;94029.13;4977423;28;103719;-48
2021/12/12 05:34:57;;;;;;;12.67;11.67;;;;;;;23.30;34.41;94080.91;4977985;28;102796;-48
2021/12/12 05:37:23;;;;;;;12.83;11.80;;;;;;;23.30;34.27;94069.47;4977426;28;102780;-48
2021/12/12 05:39:51;;;;;;;12.50;11.50;;;;;;;23.31;34.08;94087.03;4957218;28;102811;-48
2021/12/12 05:42:18;;;;;;;11.50;10.60;;;;;;;23.29;34.37;94097.25;4976765;28;103009;-48
2021/12/12 05:44:44;;;;;;;11.60;10.70;;;;;;;23.30;34.67;94112.13;4978733;28;102781;-48
2021/12/12 05:47:10;;;;;;;12.27;11.27;;;;;;;23.32;34.17;94115.22;4986526;28;103137;-49
2021/12/12 05:49:39;;;;;;;12.70;11.60;;;;;;;23.32;34.29;94120.56;4980301;28;103246;-49
2021/12/12 05:52:14;;;;;;;12.00;11.10;;;;;;;23.31;34.00;94148.31;4968529;28;103610;-48
2021/12/12 05:54:40;;;;;;;10.93;10.07;;;;;;;23.31;34.38;94119.00;4976386;28;102819;-48
2021/12/12 05:57:09;;;;;;;11.10;10.20;;;;;;;23.32;34.46;94117.91;4978069;28;102939;-48
2021/12/12 05:59:38;;;;;;;11.77;10.87;;;;;;;23.25;34.13;94104.34;4977250;28;104584;-48
2021/12/12 06:02:06;;;;;;;10.60;9.80;;;;;;;23.33;33.85;94100.78;4980440;28;103761;-49
2021/12/12 06:04:33;;;;;;;10.27;9.53;;;;;;;23.30;34.23;94125.44;4978191;28;103352;-48
2021/12/12 06:07:02;;;;;;;10.83;9.93;;;;;;;23.28;33.97;94122.34;4977981;28;103176;-48
2021/12/12 06:09:28;;;;;;;10.73;9.83;;;;;;;23.35;34.46;94125.25;4977548;28;103987;-48
2021/12/12 06:11:54;;;;;;;10.13;9.37;;;;;;;23.35;34.21;94141.25;4978936;28;103487;-48
2021/12/12 06:14:22;;;;;;;10.93;10.03;;;;;;;23.28;34.19;94144.44;4976662;28;104075;-48
2021/12/12 06:16:49;;;;;;;9.13;8.53;;;;;;;23.35;34.05;94176.69;4981893;28;102769;-48
2021/12/12 06:19:21;;;;;;;9.77;9.07;;;;;;;23.32;34.05;94181.88;4981366;28;102984;-48
2021/12/12 06:21:51;;;;;;;9.70;8.80;;;;;;;23.32;33.60;94128.56;4980963;28;103295;-47
2021/12/12 06:24:18;;;;;;;9.60;8.90;;;;;;;23.37;33.78;94163.03;4976639;28;102800;-48
2021/12/12 06:26:44;;;;;;;8.80;8.17;;;;;;;23.37;33.31;94187.78;4981080;28;102942;-48
2021/12/12 06:29:10;;;;;;;8.20;7.60;;;;;;;23.34;34.00;94171.66;4982124;28;103335;-47
2021/12/12 06:31:39;;;;;;;8.50;7.90;;;;;;;23.39;33.52;94192.78;4980866;28;102668;-48
2021/12/12 06:34:05;;;;;;;8.00;7.40;;;;;;;23.40;33.51;94200.47;4979983;28;102691;-48
2021/12/12 06:36:32;;;;;;;8.03;7.43;;;;;;;23.36;33.50;94186.22;4979148;28;103345;-47
2021/12/12 06:38:58;;;;;;;7.33;6.83;;;;;;;23.36;34.18;94210.22;4981526;28;103483;-50
2021/12/12 06:41:25;;;;;;;8.10;7.50;;;;;;;23.25;33.86;94222.38;4980350;28;104426;-50
2021/12/12 06:43:52;;;;;;;4.97;4.50;;;;;;;23.10;33.09;94230.97;4981514;28;102769;-50
2021/12/12 06:46:19;;;;;;;4.13;3.83;;;;;;;23.06;32.87;94246.81;4976817;28;104454;-50
2021/12/12 06:48:45;;;;;;;2.70;2.50;;;;;;;23.04;32.84;94237.59;4980351;28;102684;-50
2021/12/12 06:51:12;;;;;;;3.87;2.97;;;;;;;23.01;33.18;94233.72;4980000;28;102727;-50
2021/12/12 06:53:40;;;;;;;5.73;3.13;;;;;;;22.94;32.51;94225.44;4981299;28;102670;-49
2021/12/12 06:56:08;;;;;;;3.17;2.90;;;;;;;23.05;31.69;94233.84;4978680;28;102740;-49
2021/12/12 06:58:34;;;;;;;3.13;2.83;;;;;;;23.20;32.29;94237.81;4978449;28;103459;-49
2021/12/12 07:01:05;;;;;;;3.90;2.80;;;;;;;23.35;31.86;94240.66;4981420;28;102744;-49
2021/12/12 07:03:32;;;;;;;2.77;2.53;;;;;;;23.45;31.47;94260.78;4980959;28;102729;-49
2021/12/12 07:05:58;;;;;;;3.17;2.87;;;;;;;23.62;31.33;94268.66;4977911;28;102702;-51
2021/12/12 07:08:23;;;;;;;3.07;2.33;;;;;;;23.61;31.64;94264.44;4967475;28;103759;-49
2021/12/12 07:10:50;;;;;;;3.50;2.20;;;;;;;23.37;31.96;94272.31;4990721;28;103105;-50
2021/12/12 07:13:16;;;;;;;2.77;2.20;;;;;;;23.15;31.88;94281.38;5000741;28;103051;-50
2021/12/12 07:15:48;;;;;;;4.40;2.20;;;;;;;23.05;31.34;94273.78;5001081;28;103303;-50
2021/12/12 07:18:16;;;;;;;2.30;2.10;;;;;;;23.09;32.05;94275.47;4996550;28;103342;-50
2021/12/12 07:20:43;;;;;;;2.93;2.50;;;;;;;23.10;31.73;94285.03;4997977;28;103251;-50
2021/12/12 07:23:13;;;;;;;3.80;3.40;;;;;;;23.07;30.40;94275.03;4980760;28;102792;-50
2021/12/12 07:25:40;;;;;;;4.10;3.70;;;;;;;23.22;30.23;94296.88;4980689;28;102931;-50
2021/12/12 07:28:06;;;;;;;5.37;4.47;;;;;;;23.24;30.65;94303.44;4980515;28;103531;-50
2021/12/12 07:30:33;;;;;;;6.07;4.87;;;;;;;23.21;31.02;94313.97;4958892;28;102822;-50
2021/12/12 07:32:59;;;;;;;4.60;4.07;;;;;;;23.26;31.79;94324.44;4960949;28;102830;-50
2021/12/12 07:35:26;;;;;;;4.10;3.70;;;;;;;23.28;31.75;94327.56;4978697;28;103339;-50
2021/12/12 07:37:52;;;;;;;6.70;3.80;;;;;;;23.24;31.54;94331.97;4976233;28;103919;-50
2021/12/12 07:40:21;;;;;;;5.40;3.50;;;;;;;23.16;31.37;94330.13;4956165;28;102858;-50
2021/12/12 07:42:48;;;;;;;3.17;2.57;;;;;;;23.20;30.99;94333.72;4977781;28;102810;-50
2021/12/12 07:45:15;;;;;;;3.90;2.00;;;;;;;23.14;31.42;94340.34;4980699;28;102934;-52
2021/12/12 07:47:41;;;;;;;3.30;2.60;;;;;;;23.08;31.84;94364.50;4980410;28;102742;-52
2021/12/12 07:50:10;;;;;;;2.73;2.23;;;;;;;23.05;31.28;94377.69;4980239;28;102781;-52
2021/12/12 07:52:36;;;;;;;2.63;2.23;;;;;;;23.03;30.39;94358.59;4991569;28;103234;-50
2021/12/12 07:55:05;;;;;;;2.90;2.50;;;;;;;23.16;30.67;94381.53;4982863;28;103273;-50
2021/12/12 07:57:31;;;;;;;2.67;2.10;;;;;;;23.17;30.60;94385.00;4979516;28;102937;-50
2021/12/12 07:59:59;;;;;;;4.43;2.50;;;;;;;23.16;31.11;94375.44;4979365;28;102804;-50
2021/12/12 08:02:26;;;;;;;2.30;2.07;;;;;;;23.24;31.22;94382.63;4957538;28;103177;-50
2021/12/12 08:04:54;;;;;;;4.13;2.23;;;;;;;23.24;30.96;94390.59;4978552;28;102729;-50
2021/12/12 08:07:23;;;;;;;2.13;1.93;;;;;;;23.20;31.13;94384.38;4983140;28;103452;-50
2021/12/12 08:09:50;;;;;;;3.63;2.00;;;;;;;23.18;30.81;94402.53;4980153;28;102795;-50
2021/12/12 08:12:19;;;;;;;4.83;1.77;;;;;;;23.15;30.92;94400.53;4976180;28;102876;-50
2021/12/12 08:14:46;;;;;;;2.30;1.73;;;;;;;23.14;31.07;94399.75;4975019;28;103204;-51
2021/12/12 08:17:13;;;;;;;4.67;1.90;;;;;;;23.10;31.37;94407.59;4978944;28;102849;-49
2021/12/12 08:19:40;;;;;;;2.20;1.70;;;;;;;22.89;31.43;94387.34;4998175;28;102633;-48
2021/12/12 08:22:09;;;;;;;2.50;1.60;;;;;;;22.98;31.06;94407.50;5000242;28;102779;-49
2021/12/12 08:24:37;;;;;;;4.53;1.60;;;;;;;23.06;30.32;94406.69;4993320;28;102938;-49
2021/12/12 08:27:05;;;;;;;4.77;1.60;;;;;;;23.11;30.31;94416.38;4991063;28;103453;-49
2021/12/12 08:29:32;;;;;;;7.30;2.23;;;;;;;23.00;30.72;94425.81;4980588;28;102866;-49
2021/12/12 08:31:58;;;;;;;13.77;3.67;;;;;;;22.88;31.39;94415.84;4979268;28;102717;-49
2021/12/12 08:34:26;;;;;;;5.93;1.80;;;;;;;22.80;30.89;94433.38;4979694;28;103482;-49
2021/12/12 08:36:53;;;;;;;9.40;2.70;;;;;;;22.81;31.48;94418.19;4974349;28;102833;-50
2021/12/12 08:39:20;;;;;;;12.63;3.10;;;;;;;22.84;31.79;94433.56;4979937;28;103281;-49
2021/12/12 08:41:50;;;;;;;5.13;2.23;;;;;;;23.03;30.82;94433.97;4979212;28;103256;-49
2021/12/12 08:44:17;;;;;;;6.60;2.60;;;;;;;22.89;30.97;94444.06;4978279;28;102742;-49
2021/12/12 08:46:47;;;;;;;2.83;2.40;;;;;;;22.52;30.43;94437.56;4973753;28;102868;-49
2021/12/12 08:49:15;;;;;;;4.93;2.60;;;;;;;22.60;31.01;94436.72;4978623;28;103758;-49
2021/12/12 08:51:53;;;;;;;2.70;2.17;;;;;;;22.81;31.01;94442.16;4979848;28;102605;-49
2021/12/12 08:54:27;;;;;;;2.20;2.00;;;;;;;22.95;30.97;94447.31;4978670;28;103109;-49
2021/12/12 08:57:04;;;;;;;2.93;2.20;;;;;;;23.04;30.94;94446.19;4978502;28;103333;-49
2021/12/12 08:59:36;;;;;;;3.07;2.60;;;;;;;23.11;31.06;94456.34;4975929;28;102940;-49
2021/12/12 09:02:08;;;;;;;5.07;4.67;;;;;;;23.02;31.27;94451.06;4978378;28;102788;-49
2021/12/12 09:04:45;;;;;;;4.97;3.63;;;;;;;23.11;31.39;94467.00;4978261;28;102868;-49
2021/12/12 09:07:32;;;;;;;10.33;9.33;;;;;;;23.16;31.69;94474.03;4979028;28;103037;-49
2021/12/12 09:10:09;;;;;;;8.27;7.57;;;;;;;23.19;31.56;94468.09;4952833;28;102944;-50
2021/12/12 09:12:40;;;;;;;11.50;10.37;;;;;;;23.21;32.13;94465.88;4950308;28;103362;-49
2021/12/12 09:15:15;;;;;;;11.67;10.67;;;;;;;23.29;32.43;94468.50;4969655;28;103625;-49
2021/12/12 09:18:04;;;;;;;12.30;11.27;;;;;;;23.40;33.13;94463.59;4970630;28;103500;-50
2021/12/12 09:20:36;;;;;;;12.50;11.57;;;;;;;23.45;33.63;94466.06;4967496;28;102699;-50
2021/12/12 09:23:02;;;;;;;12.30;11.30;;;;;;;23.45;33.74;94476.72;4973007;28;103243;-51
2021/12/12 09:25:42;;;;;;;13.33;11.60;;;;;;;23.36;33.63;94468.00;4971733;28;103293;-48
2021/12/12 09:28:27;;;;;;;11.63;10.50;;;;;;;23.42;33.99;94480.81;4972020;28;102756;-48
2021/12/12 09:30:57;;;;;;;12.30;11.20;;;;;;;23.47;34.05;94479.06;4960211;28;102764;-49
2021/12/12 09:33:29;;;;;;;11.83;10.40;;;;;;;23.47;33.78;94479.06;4970862;28;103790;-49
2021/12/12 09:36:03;;;;;;;11.43;10.33;;;;;;;23.38;34.46;94490.56;4969431;28;102793;-49
2021/12/12 09:38:32;;;;;;;11.33;9.83;;;;;;;23.29;34.55;94492.47;4972958;28;103203;-49
2021/12/12 09:40:57;;;;;;;9.20;8.50;;;;;;;23.24;34.46;94505.22;4969831;28;102789;-49
2021/12/12 09:43:56;;;;;;;8.70;7.10;;;;;;;23.16;34.68;94514.78;4968173;28;102869;-48
2021/12/12 09:46:59;;;;;;;6.30;5.80;;;;;;;23.13;34.68;94506.66;4974528;28;103589;-48
2021/12/12 09:53:06;;;;;;;5.97;5.47;;;;;;;23.39;34.72;94510.81;4965567;28;102717;-48
2021/12/12 09:55:48;;;;;;;6.27;5.57;;;;;;;23.66;34.90;94516.81;4979838;28;102785;-48
2021/12/12 09:58:37;;;;;;;6.73;5.13;;;;;;;23.76;35.90;94516.44;4979366;28;102919;-48
2021/12/12 10:01:38;;;;;;;6.27;5.00;;;;;;;23.80;35.76;94516.56;4959853;28;102698;-48
2021/12/12 10:04:22;;;;;;;9.03;5.47;;;;;;;23.86;35.79;94518.75;4973611;28;103816;-48
2021/12/12 10:06:59;;;;;;;6.10;5.00;;;;;;;23.91;35.69;94517.78;4980763;28;102914;-48
2021/12/12 10:09:50;;;;;;;9.53;6.17;;;;;;;23.99;36.23;94522.25;4935940;28;1289531;-53
2021/12/12 10:12:23;;;;;;;8.60;5.80;;;;;;;24.01;35.76;94510.16;4982112;28;103343;-50
2021/12/12 10:15:07;;;;;;;9.80;6.17;;;;;;;23.95;36.34;94527.47;4975346;28;102839;-48
2021/12/12 10:18:24;;;;;;;9.00;5.27;;;;;;;23.85;36.70;94527.06;4979862;28;102792;-48
2021/12/12 10:21:15;;;;;;;11.03;6.20;;;;;;;23.79;36.61;94533.69;4937238;28;103560;-49
2021/12/12 10:23:41;;;;;;;8.37;6.07;;;;;;;23.85;35.87;94527.06;4982265;28;103575;-48
2021/12/12 10:26:15;;;;;;;12.17;6.10;;;;;;;23.91;36.13;94525.78;4975981;28;102762;-49
2021/12/12 10:28:57;;;;;;;10.10;6.27;;;;;;;23.88;36.39;94516.53;4981456;28;102848;-49
2021/12/12 10:31:27;;;;;;;7.13;5.70;;;;;;;23.99;36.40;94535.59;4979301;28;103429;-49
2021/12/12 10:34:02;;;;;;;10.50;5.93;;;;;;;24.00;36.48;94548.63;4978357;28;103051;-49
2021/12/12 10:36:35;;;;;;;6.73;5.70;;;;;;;24.03;36.63;94557.13;4975699;28;103368;-48
2021/12/12 10:39:16;;;;;;;9.03;5.87;;;;;;;24.01;37.23;94549.41;4971094;28;104813;-49
2021/12/12 10:41:46;;;;;;;11.33;5.57;;;;;;;23.97;37.56;94561.84;4980145;28;103109;-48
2021/12/12 10:44:26;;;;;;;13.43;6.90;;;;;;;23.88;37.55;94559.22;4979633;28;105890;-49
2021/12/12 10:47:05;;;;;;;9.37;6.30;;;;;;;23.85;37.85;94567.06;4980048;28;103040;-49
2021/12/12 10:49:41;;;;;;;13.73;6.50;;;;;;;23.82;37.78;94559.72;4976081;28;102823;-49
2021/12/12 10:52:16;;;;;;;8.20;5.83;;;;;;;23.79;37.50;94555.03;4979480;28;102814;-49
2021/12/12 10:54:51;;;;;;;7.57;5.60;;;;;;;23.79;37.92;94558.47;4963874;28;102844;-49
2021/12/12 10:57:22;;;;;;;9.43;6.60;;;;;;;23.78;37.74;94564.13;4980109;28;102895;-49
2021/12/12 10:59:54;;;;;;;8.80;6.53;;;;;;;23.72;38.16;94560.88;4974633;28;103154;-49
2021/12/12 11:02:26;;;;;;;6.53;5.53;;;;;;;23.68;38.26;94573.28;4980602;28;102679;-49
2021/12/12 11:05:03;;;;;;;11.43;7.00;;;;;;;23.59;37.25;94568.00;4980998;28;102942;-49
2021/12/12 11:07:37;;;;;;;7.87;6.10;;;;;;;23.54;37.58;94560.16;4961785;28;102690;-49
2021/12/12 11:10:09;;;;;;;6.67;6.07;;;;;;;23.50;36.86;94566.41;4975840;28;105101;-49
2021/12/12 11:12:40;;;;;;;8.20;5.93;;;;;;;23.45;36.96;94571.94;4980608;28;103366;-50
2021/12/12 11:15:39;;;;;;;8.00;5.10;;;;;;;23.40;36.94;94567.56;4980199;28;102779;-50
2021/12/12 11:18:15;;;;;;;9.10;5.43;;;;;;;23.41;36.98;94569.91;4933403;28;103321;-50
2021/12/12 11:20:50;;;;;;;6.90;5.63;;;;;;;23.42;36.73;94571.47;4975197;28;102972;-50
2021/12/12 11:23:34;;;;;;;6.47;5.20;;;;;;;23.37;36.54;94560.22;4978126;28;102743;-50
2021/12/12 11:26:10;;;;;;;6.50;5.53;;;;;;;23.44;36.87;94562.38;4980106;28;103049;-50
2021/12/12 11:28:46;;;;;;;10.63;5.60;;;;;;;23.45;36.62;94569.25;4979869;28;102986;-50
2021/12/12 11:31:19;;;;;;;6.00;5.50;;;;;;;23.54;36.82;94565.47;4979443;28;102653;-50
2021/12/12 11:33:50;;;;;;;7.20;6.30;;;;;;;23.70;36.33;94563.88;4975913;28;102826;-50
2021/12/12 11:36:22;;;;;;;12.03;6.57;;;;;;;23.81;37.01;94566.16;4979672;28;103326;-51
2021/12/12 11:38:53;;;;;;;9.77;7.27;;;;;;;23.86;38.13;94564.09;4986608;28;103390;-50
2021/12/12 11:41:40;;;;;;;7.27;6.60;;;;;;;23.88;38.48;94564.56;4980180;28;103421;-49
2021/12/12 11:44:21;;;;;;;8.80;6.53;;;;;;;23.95;38.94;94569.38;4973826;28;103381;-49
2021/12/12 11:47:10;;;;;;;9.60;5.93;;;;;;;23.91;39.06;94563.13;4960036;28;103439;-54
2021/12/12 11:49:50;;;;;;;11.50;5.93;;;;;;;23.67;37.39;94566.38;4959044;28;103768;-50
2021/12/12 11:52:33;;;;;;;12.33;5.43;;;;;;;23.49;36.50;94573.63;4960285;28;102802;-50
2021/12/12 11:55:05;;;;;;;8.63;5.60;;;;;;;23.47;37.16;94589.16;4936760;28;104594;-50
2021/12/12 11:57:38;;;;;;;8.23;5.70;;;;;;;23.48;37.23;94585.41;4964376;28;103401;-50
2021/12/12 12:00:15;;;;;;;9.10;6.40;;;;;;;23.50;37.12;94587.75;4979919;28;102884;-50
2021/12/12 12:03:13;;;;;;;32.50;14.57;;;;;;;23.48;36.99;94579.28;4992294;28;103680;-50